sensor_id;sensor_type;location;lat;lon;timestamp;P1;durP1;ratioP1;P2;durP2;ratioP2
79025;SDS011;68425;44.716;37.756;2023-04-06T00:00:30;4.40;;;2.17;;
79025;SDS011;68425;44.716;37.756;2023-04-06T00:01:32;3.45;;;2.13;;
79025;SDS011;68425;44.716;37.756;2023-04-06T00:02:35;4.20;;;1.77;;
79025;SDS011;68425;44.716;37.756;2023-04-06T00:03:37;4.75;;;2.03;;
79025;SDS011;68425;44.716;37.756;2023-04-06T00:04:38;3.72;;;1.90;;
79025;SDS011;68425;44.716;37.756;2023-04-06T00:05:40;3.30;;;1.80;;
79025;SDS011;68425;44.716;37.756;2023-04-06T00:06:42;3.80;;;1.92;;
79025;SDS011;68425;44.716;37.756;2023-04-06T00:07:43;3.75;;;1.67;;
79025;SDS011;68425;44.716;37.756;2023-04-06T00:08:44;3.80;;;1.73;;
79025;SDS011;68425;44.716;37.756;2023-04-06T00:09:45;3.92;;;1.83;;
79025;SDS011;68425;44.716;37.756;2023-04-06T00:10:47;3.90;;;1.90;;
79025;SDS011;68425;44.716;37.756;2023-04-06T00:11:48;4.05;;;1.83;;
79025;SDS011;68425;44.716;37.756;2023-04-06T00:12:50;3.20;;;1.63;;
79025;SDS011;68425;44.716;37.756;2023-04-06T00:13:51;4.35;;;1.80;;
79025;SDS011;68425;44.716;37.756;2023-04-06T00:14:52;3.90;;;1.80;;
79025;SDS011;68425;44.716;37.756;2023-04-06T00:15:54;3.58;;;1.85;;
79025;SDS011;68425;44.716;37.756;2023-04-06T00:16:57;4.18;;;1.88;;
79025;SDS011;68425;44.716;37.756;2023-04-06T00:17:58;3.70;;;1.90;;
79025;SDS011;68425;44.716;37.756;2023-04-06T00:19:00;2.97;;;1.73;;
79025;SDS011;68425;44.716;37.756;2023-04-06T00:20:01;3.58;;;1.95;;
79025;SDS011;68425;44.716;37.756;2023-04-06T00:21:03;3.25;;;1.63;;
79025;SDS011;68425;44.716;37.756;2023-04-06T00:22:05;3.35;;;1.85;;
79025;SDS011;68425;44.716;37.756;2023-04-06T00:23:06;3.13;;;1.65;;
79025;SDS011;68425;44.716;37.756;2023-04-06T00:24:08;3.72;;;1.58;;
79025;SDS011;68425;44.716;37.756;2023-04-06T00:25:09;3.75;;;1.90;;
79025;SDS011;68425;44.716;37.756;2023-04-06T00:26:11;4.13;;;1.83;;
79025;SDS011;68425;44.716;37.756;2023-04-06T00:27:16;3.47;;;1.90;;
79025;SDS011;68425;44.716;37.756;2023-04-06T00:28:18;5.45;;;2.10;;
79025;SDS011;68425;44.716;37.756;2023-04-06T00:29:25;3.95;;;1.75;;
79025;SDS011;68425;44.716;37.756;2023-04-06T00:30:27;3.95;;;2.03;;
79025;SDS011;68425;44.716;37.756;2023-04-06T00:31:28;3.67;;;1.65;;
79025;SDS011;68425;44.716;37.756;2023-04-06T00:32:30;3.38;;;1.80;;
79025;SDS011;68425;44.716;37.756;2023-04-06T00:33:32;3.70;;;1.85;;
79025;SDS011;68425;44.716;37.756;2023-04-06T00:34:33;3.60;;;1.92;;
79025;SDS011;68425;44.716;37.756;2023-04-06T00:35:34;4.13;;;1.42;;
79025;SDS011;68425;44.716;37.756;2023-04-06T00:36:36;4.47;;;1.95;;
79025;SDS011;68425;44.716;37.756;2023-04-06T00:37:37;3.75;;;1.70;;
79025;SDS011;68425;44.716;37.756;2023-04-06T00:38:38;4.55;;;1.85;;
79025;SDS011;68425;44.716;37.756;2023-04-06T00:39:40;3.60;;;1.83;;
79025;SDS011;68425;44.716;37.756;2023-04-06T00:40:41;4.05;;;1.80;;
79025;SDS011;68425;44.716;37.756;2023-04-06T00:41:46;4.20;;;1.95;;
79025;SDS011;68425;44.716;37.756;2023-04-06T00:42:50;3.08;;;1.63;;
79025;SDS011;68425;44.716;37.756;2023-04-06T00:43:53;4.20;;;1.70;;
79025;SDS011;68425;44.716;37.756;2023-04-06T00:44:56;3.38;;;1.67;;
79025;SDS011;68425;44.716;37.756;2023-04-06T00:45:58;3.83;;;1.90;;
79025;SDS011;68425;44.716;37.756;2023-04-06T00:47:00;3.38;;;1.75;;
79025;SDS011;68425;44.716;37.756;2023-04-06T00:48:01;4.38;;;1.70;;
79025;SDS011;68425;44.716;37.756;2023-04-06T00:49:02;3.95;;;1.85;;
79025;SDS011;68425;44.716;37.756;2023-04-06T00:50:04;3.85;;;1.70;;
79025;SDS011;68425;44.716;37.756;2023-04-06T00:51:06;3.90;;;1.80;;
79025;SDS011;68425;44.716;37.756;2023-04-06T00:52:07;3.03;;;1.35;;
79025;SDS011;68425;44.716;37.756;2023-04-06T00:53:09;3.75;;;1.80;;
79025;SDS011;68425;44.716;37.756;2023-04-06T00:54:10;3.03;;;1.40;;
79025;SDS011;68425;44.716;37.756;2023-04-06T00:55:12;3.85;;;1.70;;
79025;SDS011;68425;44.716;37.756;2023-04-06T00:56:16;3.60;;;1.60;;
79025;SDS011;68425;44.716;37.756;2023-04-06T00:57:26;3.08;;;1.95;;
79025;SDS011;68425;44.716;37.756;2023-04-06T00:58:30;4.20;;;1.63;;
79025;SDS011;68425;44.716;37.756;2023-04-06T00:59:39;4.30;;;1.80;;
79025;SDS011;68425;44.716;37.756;2023-04-06T01:00:43;3.85;;;1.80;;
79025;SDS011;68425;44.716;37.756;2023-04-06T01:01:50;4.22;;;1.77;;
79025;SDS011;68425;44.716;37.756;2023-04-06T01:03:04;3.17;;;1.58;;
79025;SDS011;68425;44.716;37.756;2023-04-06T01:04:13;3.47;;;1.80;;
79025;SDS011;68425;44.716;37.756;2023-04-06T01:05:16;3.05;;;1.52;;
79025;SDS011;68425;44.716;37.756;2023-04-06T01:06:25;2.50;;;1.40;;
79025;SDS011;68425;44.716;37.756;2023-04-06T01:07:32;3.40;;;1.60;;
79025;SDS011;68425;44.716;37.756;2023-04-06T01:08:44;3.58;;;1.73;;
79025;SDS011;68425;44.716;37.756;2023-04-06T01:09:55;4.28;;;1.98;;
79025;SDS011;68425;44.716;37.756;2023-04-06T01:11:00;3.33;;;1.70;;
79025;SDS011;68425;44.716;37.756;2023-04-06T01:13:06;3.65;;;1.75;;
79025;SDS011;68425;44.716;37.756;2023-04-06T01:14:35;3.97;;;1.73;;
79025;SDS011;68425;44.716;37.756;2023-04-06T01:15:36;3.60;;;1.73;;
79025;SDS011;68425;44.716;37.756;2023-04-06T01:16:41;4.05;;;1.63;;
79025;SDS011;68425;44.716;37.756;2023-04-06T01:17:49;3.08;;;1.63;;
79025;SDS011;68425;44.716;37.756;2023-04-06T01:18:51;3.80;;;1.90;;
79025;SDS011;68425;44.716;37.756;2023-04-06T01:20:00;2.78;;;1.40;;
79025;SDS011;68425;44.716;37.756;2023-04-06T01:21:05;3.67;;;1.77;;
79025;SDS011;68425;44.716;37.756;2023-04-06T01:22:13;3.90;;;1.85;;
79025;SDS011;68425;44.716;37.756;2023-04-06T01:23:19;2.53;;;1.60;;
79025;SDS011;68425;44.716;37.756;2023-04-06T01:24:22;3.53;;;1.52;;
79025;SDS011;68425;44.716;37.756;2023-04-06T01:25:36;3.50;;;1.65;;
79025;SDS011;68425;44.716;37.756;2023-04-06T01:26:42;3.45;;;1.70;;
79025;SDS011;68425;44.716;37.756;2023-04-06T01:27:44;3.45;;;1.45;;
79025;SDS011;68425;44.716;37.756;2023-04-06T01:28:46;3.47;;;1.60;;
79025;SDS011;68425;44.716;37.756;2023-04-06T01:29:59;3.00;;;1.50;;
79025;SDS011;68425;44.716;37.756;2023-04-06T01:31:21;3.83;;;1.70;;
79025;SDS011;68425;44.716;37.756;2023-04-06T01:32:25;3.70;;;1.65;;
79025;SDS011;68425;44.716;37.756;2023-04-06T01:33:27;3.35;;;1.60;;
79025;SDS011;68425;44.716;37.756;2023-04-06T01:34:38;2.38;;;1.35;;
79025;SDS011;68425;44.716;37.756;2023-04-06T01:35:40;3.30;;;1.50;;
79025;SDS011;68425;44.716;37.756;2023-04-06T01:36:49;3.38;;;1.48;;
79025;SDS011;68425;44.716;37.756;2023-04-06T01:38:01;3.42;;;1.58;;
79025;SDS011;68425;44.716;37.756;2023-04-06T01:39:06;3.60;;;1.58;;
79025;SDS011;68425;44.716;37.756;2023-04-06T01:40:11;3.60;;;1.40;;
79025;SDS011;68425;44.716;37.756;2023-04-06T01:41:24;3.03;;;1.58;;
79025;SDS011;68425;44.716;37.756;2023-04-06T01:42:27;2.85;;;1.40;;
79025;SDS011;68425;44.716;37.756;2023-04-06T01:43:28;3.28;;;1.42;;
79025;SDS011;68425;44.716;37.756;2023-04-06T01:44:39;3.10;;;1.45;;
79025;SDS011;68425;44.716;37.756;2023-04-06T01:45:45;3.67;;;1.65;;
79025;SDS011;68425;44.716;37.756;2023-04-06T01:46:53;2.22;;;1.20;;
79025;SDS011;68425;44.716;37.756;2023-04-06T01:47:56;3.33;;;1.52;;
79025;SDS011;68425;44.716;37.756;2023-04-06T01:49:00;3.40;;;1.42;;
79025;SDS011;68425;44.716;37.756;2023-04-06T01:50:08;3.78;;;1.65;;
79025;SDS011;68425;44.716;37.756;2023-04-06T01:51:15;2.85;;;1.48;;
79025;SDS011;68425;44.716;37.756;2023-04-06T01:52:28;3.50;;;1.48;;
79025;SDS011;68425;44.716;37.756;2023-04-06T01:53:30;3.22;;;1.60;;
79025;SDS011;68425;44.716;37.756;2023-04-06T01:54:37;2.75;;;1.30;;
79025;SDS011;68425;44.716;37.756;2023-04-06T01:56:12;3.03;;;1.70;;
79025;SDS011;68425;44.716;37.756;2023-04-06T01:57:20;3.00;;;1.60;;
79025;SDS011;68425;44.716;37.756;2023-04-06T01:58:27;3.33;;;1.38;;
79025;SDS011;68425;44.716;37.756;2023-04-06T01:59:28;3.33;;;1.52;;
79025;SDS011;68425;44.716;37.756;2023-04-06T02:00:31;3.80;;;1.50;;
79025;SDS011;68425;44.716;37.756;2023-04-06T02:01:32;2.97;;;1.67;;
79025;SDS011;68425;44.716;37.756;2023-04-06T02:02:33;3.17;;;1.48;;
79025;SDS011;68425;44.716;37.756;2023-04-06T02:03:39;3.10;;;1.60;;
79025;SDS011;68425;44.716;37.756;2023-04-06T02:04:44;3.65;;;1.55;;
79025;SDS011;68425;44.716;37.756;2023-04-06T02:05:47;2.90;;;1.55;;
79025;SDS011;68425;44.716;37.756;2023-04-06T02:06:56;2.90;;;1.23;;
79025;SDS011;68425;44.716;37.756;2023-04-06T02:07:59;2.53;;;1.48;;
79025;SDS011;68425;44.716;37.756;2023-04-06T02:09:09;3.03;;;1.60;;
79025;SDS011;68425;44.716;37.756;2023-04-06T02:10:12;2.80;;;1.30;;
79025;SDS011;68425;44.716;37.756;2023-04-06T02:11:14;3.10;;;1.38;;
79025;SDS011;68425;44.716;37.756;2023-04-06T02:12:20;3.20;;;1.35;;
79025;SDS011;68425;44.716;37.756;2023-04-06T02:13:22;2.92;;;1.35;;
79025;SDS011;68425;44.716;37.756;2023-04-06T02:14:26;3.38;;;1.60;;
79025;SDS011;68425;44.716;37.756;2023-04-06T02:15:32;3.70;;;1.50;;
79025;SDS011;68425;44.716;37.756;2023-04-06T02:16:33;3.67;;;1.50;;
79025;SDS011;68425;44.716;37.756;2023-04-06T02:17:35;3.13;;;1.33;;
79025;SDS011;68425;44.716;37.756;2023-04-06T02:18:36;3.70;;;1.70;;
79025;SDS011;68425;44.716;37.756;2023-04-06T02:19:37;3.00;;;1.40;;
79025;SDS011;68425;44.716;37.756;2023-04-06T02:20:39;2.95;;;1.40;;
79025;SDS011;68425;44.716;37.756;2023-04-06T02:21:41;2.60;;;1.50;;
79025;SDS011;68425;44.716;37.756;2023-04-06T02:22:42;2.35;;;1.17;;
79025;SDS011;68425;44.716;37.756;2023-04-06T02:23:44;2.35;;;1.35;;
79025;SDS011;68425;44.716;37.756;2023-04-06T02:24:45;2.80;;;1.40;;
79025;SDS011;68425;44.716;37.756;2023-04-06T02:25:47;2.15;;;1.27;;
79025;SDS011;68425;44.716;37.756;2023-04-06T02:26:48;3.05;;;1.50;;
79025;SDS011;68425;44.716;37.756;2023-04-06T02:27:50;3.60;;;1.40;;
79025;SDS011;68425;44.716;37.756;2023-04-06T02:28:51;3.00;;;1.40;;
79025;SDS011;68425;44.716;37.756;2023-04-06T02:29:52;3.30;;;1.40;;
79025;SDS011;68425;44.716;37.756;2023-04-06T02:30:54;2.78;;;1.40;;
79025;SDS011;68425;44.716;37.756;2023-04-06T02:32:00;4.07;;;1.60;;
79025;SDS011;68425;44.716;37.756;2023-04-06T02:33:04;2.92;;;1.30;;
79025;SDS011;68425;44.716;37.756;2023-04-06T02:34:13;2.80;;;1.27;;
79025;SDS011;68425;44.716;37.756;2023-04-06T02:35:21;3.53;;;1.67;;
79025;SDS011;68425;44.716;37.756;2023-04-06T02:36:27;2.88;;;1.42;;
79025;SDS011;68425;44.716;37.756;2023-04-06T02:37:29;4.45;;;1.60;;
79025;SDS011;68425;44.716;37.756;2023-04-06T02:38:30;3.33;;;1.42;;
79025;SDS011;68425;44.716;37.756;2023-04-06T02:39:35;2.83;;;1.30;;
79025;SDS011;68425;44.716;37.756;2023-04-06T02:40:37;2.85;;;1.30;;
79025;SDS011;68425;44.716;37.756;2023-04-06T02:41:49;2.47;;;1.30;;
79025;SDS011;68425;44.716;37.756;2023-04-06T02:42:55;2.50;;;1.30;;
79025;SDS011;68425;44.716;37.756;2023-04-06T02:44:03;2.45;;;1.38;;
79025;SDS011;68425;44.716;37.756;2023-04-06T02:45:18;2.65;;;1.35;;
79025;SDS011;68425;44.716;37.756;2023-04-06T02:46:21;4.22;;;1.45;;
79025;SDS011;68425;44.716;37.756;2023-04-06T02:47:23;2.78;;;1.30;;
79025;SDS011;68425;44.716;37.756;2023-04-06T02:48:25;2.80;;;1.30;;
79025;SDS011;68425;44.716;37.756;2023-04-06T02:49:27;3.05;;;1.30;;
79025;SDS011;68425;44.716;37.756;2023-04-06T02:50:31;2.00;;;1.20;;
79025;SDS011;68425;44.716;37.756;2023-04-06T02:51:36;3.53;;;1.35;;
79025;SDS011;68425;44.716;37.756;2023-04-06T02:52:49;3.17;;;1.30;;
79025;SDS011;68425;44.716;37.756;2023-04-06T02:53:51;2.65;;;1.20;;
79025;SDS011;68425;44.716;37.756;2023-04-06T02:54:52;2.70;;;1.15;;
79025;SDS011;68425;44.716;37.756;2023-04-06T02:56:00;2.75;;;1.40;;
79025;SDS011;68425;44.716;37.756;2023-04-06T02:57:10;2.65;;;1.35;;
79025;SDS011;68425;44.716;37.756;2023-04-06T02:58:15;3.17;;;1.48;;
79025;SDS011;68425;44.716;37.756;2023-04-06T02:59:24;2.40;;;1.30;;
79025;SDS011;68425;44.716;37.756;2023-04-06T03:00:37;3.10;;;1.48;;
79025;SDS011;68425;44.716;37.756;2023-04-06T03:01:39;2.90;;;1.40;;
79025;SDS011;68425;44.716;37.756;2023-04-06T03:02:40;2.75;;;1.30;;
79025;SDS011;68425;44.716;37.756;2023-04-06T03:03:45;3.58;;;1.33;;
79025;SDS011;68425;44.716;37.756;2023-04-06T03:04:54;2.47;;;1.30;;
79025;SDS011;68425;44.716;37.756;2023-04-06T03:06:01;3.65;;;1.30;;
79025;SDS011;68425;44.716;37.756;2023-04-06T03:07:05;2.90;;;1.30;;
79025;SDS011;68425;44.716;37.756;2023-04-06T03:08:10;2.00;;;1.02;;
79025;SDS011;68425;44.716;37.756;2023-04-06T03:09:16;2.55;;;1.27;;
79025;SDS011;68425;44.716;37.756;2023-04-06T03:10:18;2.65;;;1.30;;
79025;SDS011;68425;44.716;37.756;2023-04-06T03:11:22;3.10;;;1.48;;
79025;SDS011;68425;44.716;37.756;2023-04-06T03:12:25;2.30;;;1.27;;
79025;SDS011;68425;44.716;37.756;2023-04-06T03:13:47;2.80;;;1.40;;
79025;SDS011;68425;44.716;37.756;2023-04-06T03:14:48;3.53;;;1.40;;
79025;SDS011;68425;44.716;37.756;2023-04-06T03:15:50;2.97;;;1.45;;
79025;SDS011;68425;44.716;37.756;2023-04-06T03:16:54;2.33;;;1.30;;
79025;SDS011;68425;44.716;37.756;2023-04-06T03:17:57;3.10;;;1.20;;
79025;SDS011;68425;44.716;37.756;2023-04-06T03:20:14;2.42;;;1.15;;
79025;SDS011;68425;44.716;37.756;2023-04-06T03:21:15;2.53;;;1.30;;
79025;SDS011;68425;44.716;37.756;2023-04-06T03:22:22;2.78;;;1.27;;
79025;SDS011;68425;44.716;37.756;2023-04-06T03:23:24;4.53;;;1.45;;
79025;SDS011;68425;44.716;37.756;2023-04-06T03:24:30;3.15;;;1.48;;
79025;SDS011;68425;44.716;37.756;2023-04-06T03:25:32;4.05;;;1.20;;
79025;SDS011;68425;44.716;37.756;2023-04-06T03:26:38;2.42;;;1.20;;
79025;SDS011;68425;44.716;37.756;2023-04-06T03:27:41;2.47;;;1.30;;
79025;SDS011;68425;44.716;37.756;2023-04-06T03:28:46;2.33;;;1.20;;
79025;SDS011;68425;44.716;37.756;2023-04-06T03:29:48;2.78;;;1.10;;
79025;SDS011;68425;44.716;37.756;2023-04-06T03:30:56;3.17;;;1.50;;
79025;SDS011;68425;44.716;37.756;2023-04-06T03:32:17;2.65;;;1.20;;
79025;SDS011;68425;44.716;37.756;2023-04-06T03:33:18;3.38;;;1.27;;
79025;SDS011;68425;44.716;37.756;2023-04-06T03:34:29;2.25;;;1.20;;
79025;SDS011;68425;44.716;37.756;2023-04-06T03:35:31;2.80;;;1.25;;
79025;SDS011;68425;44.716;37.756;2023-04-06T03:36:33;2.88;;;1.23;;
79025;SDS011;68425;44.716;37.756;2023-04-06T03:37:37;3.10;;;1.27;;
79025;SDS011;68425;44.716;37.756;2023-04-06T03:38:39;2.78;;;1.45;;
79025;SDS011;68425;44.716;37.756;2023-04-06T03:39:45;3.10;;;1.27;;
79025;SDS011;68425;44.716;37.756;2023-04-06T03:40:51;3.03;;;1.23;;
79025;SDS011;68425;44.716;37.756;2023-04-06T03:41:57;2.97;;;1.27;;
79025;SDS011;68425;44.716;37.756;2023-04-06T03:43:08;2.28;;;1.10;;
79025;SDS011;68425;44.716;37.756;2023-04-06T03:44:11;2.42;;;1.20;;
79025;SDS011;68425;44.716;37.756;2023-04-06T03:45:13;3.40;;;1.38;;
79025;SDS011;68425;44.716;37.756;2023-04-06T03:46:19;4.13;;;1.23;;
79025;SDS011;68425;44.716;37.756;2023-04-06T03:47:24;2.88;;;1.30;;
79025;SDS011;68425;44.716;37.756;2023-04-06T03:48:30;2.83;;;1.38;;
79025;SDS011;68425;44.716;37.756;2023-04-06T03:49:35;2.65;;;1.15;;
79025;SDS011;68425;44.716;37.756;2023-04-06T03:50:41;3.47;;;1.33;;
79025;SDS011;68425;44.716;37.756;2023-04-06T03:51:42;2.60;;;1.33;;
79025;SDS011;68425;44.716;37.756;2023-04-06T03:52:43;2.03;;;1.20;;
79025;SDS011;68425;44.716;37.756;2023-04-06T03:53:45;3.08;;;1.58;;
79025;SDS011;68425;44.716;37.756;2023-04-06T03:54:46;3.67;;;1.45;;
79025;SDS011;68425;44.716;37.756;2023-04-06T03:55:47;2.47;;;1.38;;
79025;SDS011;68425;44.716;37.756;2023-04-06T03:56:49;3.60;;;1.15;;
79025;SDS011;68425;44.716;37.756;2023-04-06T03:57:50;2.55;;;1.20;;
79025;SDS011;68425;44.716;37.756;2023-04-06T03:58:52;5.28;;;1.58;;
79025;SDS011;68425;44.716;37.756;2023-04-06T03:59:55;3.97;;;1.42;;
79025;SDS011;68425;44.716;37.756;2023-04-06T04:01:00;3.42;;;1.33;;
79025;SDS011;68425;44.716;37.756;2023-04-06T04:02:01;4.82;;;1.80;;
79025;SDS011;68425;44.716;37.756;2023-04-06T04:03:04;5.47;;;1.70;;
79025;SDS011;68425;44.716;37.756;2023-04-06T04:04:05;4.32;;;1.33;;
79025;SDS011;68425;44.716;37.756;2023-04-06T04:05:07;4.57;;;1.55;;
79025;SDS011;68425;44.716;37.756;2023-04-06T04:06:08;5.03;;;1.73;;
79025;SDS011;68425;44.716;37.756;2023-04-06T04:07:10;4.63;;;1.40;;
79025;SDS011;68425;44.716;37.756;2023-04-06T04:08:11;9.65;;;3.17;;
79025;SDS011;68425;44.716;37.756;2023-04-06T04:09:12;19.85;;;6.10;;
79025;SDS011;68425;44.716;37.756;2023-04-06T04:10:14;13.50;;;3.55;;
79025;SDS011;68425;44.716;37.756;2023-04-06T04:11:15;22.00;;;5.90;;
79025;SDS011;68425;44.716;37.756;2023-04-06T04:12:17;29.77;;;8.35;;
79025;SDS011;68425;44.716;37.756;2023-04-06T04:13:19;28.65;;;7.93;;
79025;SDS011;68425;44.716;37.756;2023-04-06T04:14:23;25.08;;;6.35;;
79025;SDS011;68425;44.716;37.756;2023-04-06T04:15:24;29.27;;;7.72;;
79025;SDS011;68425;44.716;37.756;2023-04-06T04:16:26;26.73;;;6.57;;
79025;SDS011;68425;44.716;37.756;2023-04-06T04:17:27;28.52;;;6.97;;
79025;SDS011;68425;44.716;37.756;2023-04-06T04:18:29;20.75;;;5.57;;
79025;SDS011;68425;44.716;37.756;2023-04-06T04:19:30;17.63;;;5.10;;
79025;SDS011;68425;44.716;37.756;2023-04-06T04:20:31;20.02;;;4.97;;
79025;SDS011;68425;44.716;37.756;2023-04-06T04:21:41;14.68;;;4.50;;
79025;SDS011;68425;44.716;37.756;2023-04-06T04:22:45;17.95;;;5.35;;
79025;SDS011;68425;44.716;37.756;2023-04-06T04:23:46;15.93;;;4.70;;
79025;SDS011;68425;44.716;37.756;2023-04-06T04:24:48;20.20;;;5.00;;
79025;SDS011;68425;44.716;37.756;2023-04-06T04:25:49;17.58;;;5.10;;
79025;SDS011;68425;44.716;37.756;2023-04-06T04:26:52;22.52;;;7.00;;
79025;SDS011;68425;44.716;37.756;2023-04-06T04:27:54;19.38;;;7.10;;
79025;SDS011;68425;44.716;37.756;2023-04-06T04:28:56;21.65;;;9.13;;
79025;SDS011;68425;44.716;37.756;2023-04-06T04:29:58;22.20;;;8.25;;
79025;SDS011;68425;44.716;37.756;2023-04-06T04:30:59;18.63;;;7.28;;
79025;SDS011;68425;44.716;37.756;2023-04-06T04:32:03;18.25;;;6.90;;
79025;SDS011;68425;44.716;37.756;2023-04-06T04:33:05;19.70;;;6.18;;
79025;SDS011;68425;44.716;37.756;2023-04-06T04:34:06;13.95;;;5.25;;
79025;SDS011;68425;44.716;37.756;2023-04-06T04:35:08;15.85;;;5.60;;
79025;SDS011;68425;44.716;37.756;2023-04-06T04:36:15;18.95;;;5.47;;
79025;SDS011;68425;44.716;37.756;2023-04-06T04:37:18;16.95;;;5.47;;
79025;SDS011;68425;44.716;37.756;2023-04-06T04:38:26;18.88;;;5.60;;
79025;SDS011;68425;44.716;37.756;2023-04-06T04:39:30;17.60;;;4.43;;
79025;SDS011;68425;44.716;37.756;2023-04-06T04:40:36;13.02;;;4.95;;
79025;SDS011;68425;44.716;37.756;2023-04-06T04:41:42;19.13;;;5.18;;
79025;SDS011;68425;44.716;37.756;2023-04-06T04:42:46;15.93;;;4.75;;
79025;SDS011;68425;44.716;37.756;2023-04-06T04:43:54;14.52;;;4.30;;
79025;SDS011;68425;44.716;37.756;2023-04-06T04:44:59;15.93;;;5.15;;
79025;SDS011;68425;44.716;37.756;2023-04-06T04:46:27;15.75;;;4.63;;
79025;SDS011;68425;44.716;37.756;2023-04-06T04:47:29;13.30;;;4.45;;
79025;SDS011;68425;44.716;37.756;2023-04-06T04:48:30;16.80;;;4.85;;
79025;SDS011;68425;44.716;37.756;2023-04-06T04:49:35;14.23;;;4.72;;
79025;SDS011;68425;44.716;37.756;2023-04-06T04:50:37;16.25;;;5.05;;
79025;SDS011;68425;44.716;37.756;2023-04-06T04:51:39;16.35;;;4.82;;
79025;SDS011;68425;44.716;37.756;2023-04-06T04:52:47;15.70;;;4.30;;
79025;SDS011;68425;44.716;37.756;2023-04-06T04:53:52;16.52;;;4.72;;
79025;SDS011;68425;44.716;37.756;2023-04-06T04:54:58;15.27;;;4.45;;
79025;SDS011;68425;44.716;37.756;2023-04-06T04:56:02;13.48;;;4.75;;
79025;SDS011;68425;44.716;37.756;2023-04-06T04:57:04;16.25;;;5.07;;
79025;SDS011;68425;44.716;37.756;2023-04-06T04:58:17;12.65;;;4.63;;
79025;SDS011;68425;44.716;37.756;2023-04-06T04:59:27;12.80;;;3.92;;
79025;SDS011;68425;44.716;37.756;2023-04-06T05:00:35;17.70;;;4.88;;
79025;SDS011;68425;44.716;37.756;2023-04-06T05:01:37;11.50;;;4.30;;
79025;SDS011;68425;44.716;37.756;2023-04-06T05:02:38;13.32;;;4.03;;
79025;SDS011;68425;44.716;37.756;2023-04-06T05:03:50;12.90;;;3.70;;
79025;SDS011;68425;44.716;37.756;2023-04-06T05:04:52;13.48;;;4.18;;
79025;SDS011;68425;44.716;37.756;2023-04-06T05:05:57;11.85;;;4.13;;
79025;SDS011;68425;44.716;37.756;2023-04-06T05:07:06;9.57;;;3.95;;
79025;SDS011;68425;44.716;37.756;2023-04-06T05:08:09;14.00;;;4.07;;
79025;SDS011;68425;44.716;37.756;2023-04-06T05:09:22;11.38;;;4.00;;
79025;SDS011;68425;44.716;37.756;2023-04-06T05:10:23;9.05;;;3.47;;
79025;SDS011;68425;44.716;37.756;2023-04-06T05:11:29;13.40;;;4.22;;
79025;SDS011;68425;44.716;37.756;2023-04-06T05:12:34;10.57;;;3.25;;
79025;SDS011;68425;44.716;37.756;2023-04-06T05:13:45;11.73;;;4.00;;
79025;SDS011;68425;44.716;37.756;2023-04-06T05:14:51;14.10;;;4.75;;
79025;SDS011;68425;44.716;37.756;2023-04-06T05:15:54;12.10;;;3.88;;
79025;SDS011;68425;44.716;37.756;2023-04-06T05:17:00;10.88;;;4.10;;
79025;SDS011;68425;44.716;37.756;2023-04-06T05:18:01;11.90;;;4.00;;
79025;SDS011;68425;44.716;37.756;2023-04-06T05:19:07;14.38;;;3.90;;
79025;SDS011;68425;44.716;37.756;2023-04-06T05:20:14;10.48;;;3.30;;
79025;SDS011;68425;44.716;37.756;2023-04-06T05:21:22;9.70;;;3.67;;
79025;SDS011;68425;44.716;37.756;2023-04-06T05:22:33;10.57;;;3.78;;
79025;SDS011;68425;44.716;37.756;2023-04-06T05:23:40;10.80;;;3.30;;
79025;SDS011;68425;44.716;37.756;2023-04-06T05:24:41;11.57;;;3.95;;
79025;SDS011;68425;44.716;37.756;2023-04-06T05:25:43;11.10;;;3.70;;
79025;SDS011;68425;44.716;37.756;2023-04-06T05:26:52;11.00;;;3.95;;
79025;SDS011;68425;44.716;37.756;2023-04-06T05:27:57;9.48;;;2.97;;
79025;SDS011;68425;44.716;37.756;2023-04-06T05:29:08;11.95;;;3.67;;
79025;SDS011;68425;44.716;37.756;2023-04-06T05:30:13;10.88;;;3.42;;
79025;SDS011;68425;44.716;37.756;2023-04-06T05:31:20;10.40;;;3.20;;
79025;SDS011;68425;44.716;37.756;2023-04-06T05:32:24;11.18;;;3.35;;
79025;SDS011;68425;44.716;37.756;2023-04-06T05:33:26;8.32;;;3.42;;
79025;SDS011;68425;44.716;37.756;2023-04-06T05:34:36;10.57;;;3.40;;
79025;SDS011;68425;44.716;37.756;2023-04-06T05:35:39;8.80;;;3.40;;
79025;SDS011;68425;44.716;37.756;2023-04-06T05:36:45;9.38;;;3.50;;
79025;SDS011;68425;44.716;37.756;2023-04-06T05:37:52;10.43;;;3.13;;
79025;SDS011;68425;44.716;37.756;2023-04-06T05:38:58;9.65;;;3.25;;
79025;SDS011;68425;44.716;37.756;2023-04-06T05:40:19;8.60;;;3.10;;
79025;SDS011;68425;44.716;37.756;2023-04-06T05:41:20;8.73;;;3.10;;
79025;SDS011;68425;44.716;37.756;2023-04-06T05:42:22;7.18;;;3.15;;
79025;SDS011;68425;44.716;37.756;2023-04-06T05:43:30;12.13;;;3.50;;
79025;SDS011;68425;44.716;37.756;2023-04-06T05:44:33;9.32;;;3.53;;
79025;SDS011;68425;44.716;37.756;2023-04-06T05:45:45;8.52;;;2.90;;
79025;SDS011;68425;44.716;37.756;2023-04-06T05:46:46;9.15;;;3.28;;
79025;SDS011;68425;44.716;37.756;2023-04-06T05:47:50;8.65;;;3.03;;
79025;SDS011;68425;44.716;37.756;2023-04-06T05:49:02;8.73;;;3.17;;
79025;SDS011;68425;44.716;37.756;2023-04-06T05:50:06;9.63;;;3.08;;
79025;SDS011;68425;44.716;37.756;2023-04-06T05:51:11;9.48;;;3.33;;
79025;SDS011;68425;44.716;37.756;2023-04-06T05:52:19;8.10;;;3.40;;
79025;SDS011;68425;44.716;37.756;2023-04-06T05:53:22;8.25;;;3.30;;
79025;SDS011;68425;44.716;37.756;2023-04-06T05:54:29;8.93;;;2.90;;
79025;SDS011;68425;44.716;37.756;2023-04-06T05:55:35;7.32;;;3.13;;
79025;SDS011;68425;44.716;37.756;2023-04-06T05:56:44;9.00;;;3.42;;
79025;SDS011;68425;44.716;37.756;2023-04-06T05:57:46;7.43;;;3.00;;
79025;SDS011;68425;44.716;37.756;2023-04-06T05:58:51;7.00;;;3.00;;
79025;SDS011;68425;44.716;37.756;2023-04-06T05:59:59;7.97;;;2.90;;
79025;SDS011;68425;44.716;37.756;2023-04-06T06:01:13;9.20;;;2.67;;
79025;SDS011;68425;44.716;37.756;2023-04-06T06:02:18;7.47;;;2.67;;
79025;SDS011;68425;44.716;37.756;2023-04-06T06:03:24;6.97;;;2.60;;
79025;SDS011;68425;44.716;37.756;2023-04-06T06:04:29;7.90;;;3.00;;
79025;SDS011;68425;44.716;37.756;2023-04-06T06:05:31;10.48;;;2.97;;
79025;SDS011;68425;44.716;37.756;2023-04-06T06:06:39;9.82;;;2.88;;
79025;SDS011;68425;44.716;37.756;2023-04-06T06:07:48;8.20;;;3.08;;
79025;SDS011;68425;44.716;37.756;2023-04-06T06:08:49;7.88;;;2.50;;
79025;SDS011;68425;44.716;37.756;2023-04-06T06:09:52;9.32;;;2.88;;
79025;SDS011;68425;44.716;37.756;2023-04-06T06:10:59;9.73;;;3.10;;
79025;SDS011;68425;44.716;37.756;2023-04-06T06:12:00;7.95;;;2.90;;
79025;SDS011;68425;44.716;37.756;2023-04-06T06:13:03;8.45;;;3.03;;
79025;SDS011;68425;44.716;37.756;2023-04-06T06:14:05;7.45;;;2.55;;
79025;SDS011;68425;44.716;37.756;2023-04-06T06:15:10;6.68;;;2.30;;
79025;SDS011;68425;44.716;37.756;2023-04-06T06:16:17;8.23;;;2.90;;
79025;SDS011;68425;44.716;37.756;2023-04-06T06:17:21;7.70;;;2.60;;
79025;SDS011;68425;44.716;37.756;2023-04-06T06:18:23;7.80;;;2.83;;
79025;SDS011;68425;44.716;37.756;2023-04-06T06:19:27;8.45;;;2.60;;
79025;SDS011;68425;44.716;37.756;2023-04-06T06:20:31;7.50;;;2.60;;
79025;SDS011;68425;44.716;37.756;2023-04-06T06:21:37;7.97;;;2.92;;
79025;SDS011;68425;44.716;37.756;2023-04-06T06:22:40;7.15;;;2.75;;
79025;SDS011;68425;44.716;37.756;2023-04-06T06:23:44;7.20;;;3.20;;
79025;SDS011;68425;44.716;37.756;2023-04-06T06:24:50;6.32;;;2.85;;